Time;durP1;ratioP1;P1;durP2;ratioP2;P2;SDS_P1;SDS_P2;PMS_P1;PMS_P2;Temp;Humidity;BMP_temperature;BMP_pressure;BME280_temperature;BME280_humidity;BME280_pressure;Samples;Min_cycle;Max_cycle;Signal;HPM_P1;HPM_P2
2024/04/24 00:00:28;;;;;;;;;;;;;;;4.70;71.83;98916.50;5317949;26;20242;-59
2024/04/24 00:03:02;;;;;;;;;;;;;;;4.66;72.06;98915.28;5315374;26;19933;-59
2024/04/24 00:05:36;;;;;;;;;;;;;;;4.71;69.58;98907.50;5320988;26;19949;-59
2024/04/24 00:08:06;;;;;;;;;;;;;;;4.65;70.18;98900.41;5325895;26;20300;-59
2024/04/24 00:10:36;;;;;;;;;;;;;;;4.77;69.28;98911.97;5320967;26;20339;-59
2024/04/24 00:13:06;;;;;;;;;;;;;;;4.89;69.85;98910.28;5325029;26;19926;-59
2024/04/24 00:15:36;;;;;;;;;;;;;;;4.85;69.92;98909.06;5323745;26;24084;-60
2024/04/24 00:18:05;;;;;;;;;;;;;;;4.84;70.35;98911.91;5329380;26;19950;-59
2024/04/24 00:20:38;;;;;;;;;;;;;;;4.95;72.10;98906.75;5324143;26;19926;-60
2024/04/24 00:23:08;;;;;;;;;;;;;;;4.74;72.48;98907.06;5322180;26;19934;-60
2024/04/24 00:25:38;;;;;;;;;;;;;;;4.79;72.60;98909.91;5308917;26;19940;-59
2024/04/24 00:28:07;;;;;;;;;;;;;;;4.79;72.76;98903.78;5318509;26;19956;-60
2024/04/24 00:30:37;;;;;;;;;;;;;;;4.76;73.69;98897.88;5319373;26;19926;-60
2024/04/24 00:33:09;;;;;;;;;;;;;;;4.85;74.50;98898.44;5326376;26;19981;-60
2024/04/24 00:35:42;;;;;;;;;;;;;;;4.83;74.01;98899.69;5319676;26;19934;-59
2024/04/24 00:38:11;;;;;;;;;;;;;;;4.78;74.53;98891.53;5327339;26;19926;-59
2024/04/24 00:40:41;;;;;;;;;;;;;;;4.76;75.37;98889.09;5325986;26;19941;-59
2024/04/24 00:43:11;;;;;;;;;;;;;;;4.72;76.21;98882.59;5321133;26;19965;-59
2024/04/24 00:45:41;;;;;;;;;;;;;;;4.69;76.80;98886.50;5321580;26;19926;-60
2024/04/24 00:48:12;;;;;;;;;;;;;;;4.71;77.19;98888.91;5330378;26;19932;-60
2024/04/24 00:50:44;;;;;;;;;;;;;;;4.69;77.97;98893.63;5322601;26;19996;-59
2024/04/24 00:53:14;;;;;;;;;;;;;;;4.71;79.27;98887.06;5328304;26;19941;-60
2024/04/24 00:55:41;;;;;;;;;;;;;;;4.69;80.29;98880.34;5323357;26;19926;-59
2024/04/24 00:58:12;;;;;;;;;;;;;;;4.74;82.66;98875.22;5323464;26;19941;-60
2024/04/24 01:00:42;;;;;;;;;;;;;;;4.73;84.17;98871.75;5318687;26;19933;-59
2024/04/24 01:03:12;;;;;;;;;;;;;;;4.75;85.43;98876.84;5325482;26;19933;-59
2024/04/24 01:05:45;;;;;;;;;;;;;;;4.77;86.59;98864.19;5319843;26;20402;-59
2024/04/24 01:08:15;;;;;;;;;;;;;;;4.77;88.39;98861.53;5320643;26;20687;-59
2024/04/24 01:10:45;;;;;;;;;;;;;;;4.81;89.15;98868.03;5325302;26;19937;-59
2024/04/24 01:13:15;;;;;;;;;;;;;;;4.85;90.00;98863.13;5324424;26;19926;-60
2024/04/24 01:15:44;;;;;;;;;;;;;;;4.80;90.51;98861.09;5321764;26;19926;-60
2024/04/24 01:18:14;;;;;;;;;;;;;;;4.91;90.60;98859.59;5317563;26;19927;-60
2024/04/24 01:20:47;;;;;;;;;;;;;;;4.84;91.40;98853.50;5316243;26;20283;-59
2024/04/24 01:23:20;;;;;;;;;;;;;;;4.88;92.17;98855.53;5323550;26;19941;-60
2024/04/24 01:25:52;;;;;;;;;;;;;;;4.86;92.23;98856.75;5322964;26;19937;-60
2024/04/24 01:28:26;;;;;;;;;;;;;;;4.99;92.74;98856.66;5316100;26;20707;-60
2024/04/24 01:30:56;;;;;;;;;;;;;;;4.95;91.75;98852.84;5315007;26;19933;-60
2024/04/24 01:33:25;;;;;;;;;;;;;;;4.87;93.54;98848.59;5347343;26;20734;-59
2024/04/24 01:35:55;;;;;;;;;;;;;;;4.81;91.53;98849.44;5318465;26;19930;-60
2024/04/24 01:38:25;;;;;;;;;;;;;;;4.65;92.58;98840.16;5320540;26;19966;-60
2024/04/24 01:40:55;;;;;;;;;;;;;;;4.69;93.64;98835.22;5326572;26;20252;-59
2024/04/24 01:43:25;;;;;;;;;;;;;;;4.63;94.80;98836.09;5319216;26;20866;-60
2024/04/24 01:45:55;;;;;;;;;;;;;;;4.60;95.67;98832.00;5319356;26;20548;-60
2024/04/24 01:48:24;;;;;;;;;;;;;;;4.54;96.55;98828.38;5326304;26;19927;-60
2024/04/24 01:50:54;;;;;;;;;;;;;;;4.61;97.31;98827.50;5325484;26;20353;-59
2024/04/24 01:53:24;;;;;;;;;;;;;;;4.61;97.46;98825.66;5324808;26;19940;-60
2024/04/24 01:55:54;;;;;;;;;;;;;;;4.61;97.19;98819.53;5319135;26;19926;-59
2024/04/24 01:58:24;;;;;;;;;;;;;;;4.53;96.99;98804.69;5326562;26;20012;-60
2024/04/24 02:00:56;;;;;;;;;;;;;;;4.54;97.92;98812.44;5314893;26;19932;-60
2024/04/24 02:03:26;;;;;;;;;;;;;;;4.53;97.91;98815.31;5315885;26;19926;-59
2024/04/24 02:05:56;;;;;;;;;;;;;;;4.60;97.41;98804.66;5323139;26;19937;-59
2024/04/24 02:08:26;;;;;;;;;;;;;;;4.56;97.25;98804.25;5324693;26;19978;-59
2024/04/24 02:10:56;;;;;;;;;;;;;;;4.56;97.97;98809.56;5320477;26;20000;-60
2024/04/24 02:13:25;;;;;;;;;;;;;;;4.60;98.62;98799.34;5323085;26;19926;-59
2024/04/24 02:15:58;;;;;;;;;;;;;;;4.67;98.17;98805.44;5322580;26;19941;-59
2024/04/24 02:18:28;;;;;;;;;;;;;;;4.74;97.75;98806.19;5308233;26;19949;-59
2024/04/24 02:20:57;;;;;;;;;;;;;;;4.66;98.62;98803.78;5320260;26;19926;-59
2024/04/24 02:23:31;;;;;;;;;;;;;;;4.67;99.41;98808.09;5325347;26;19937;-60
2024/04/24 02:25:58;;;;;;;;;;;;;;;4.52;99.03;98798.56;5319291;26;19927;-59
2024/04/24 02:28:28;;;;;;;;;;;;;;;4.61;98.87;98795.66;5325223;26;19926;-59
2024/04/24 02:31:00;;;;;;;;;;;;;;;4.58;98.67;98796.09;5320523;26;20420;-60
2024/04/24 02:33:30;;;;;;;;;;;;;;;4.63;98.63;98786.44;5320872;26;19933;-59
2024/04/24 02:35:57;;;;;;;;;;;;;;;4.61;98.57;98785.84;5318191;26;19927;-60
2024/04/24 02:38:27;;;;;;;;;;;;;;;4.59;99.25;98793.22;5348349;26;19926;-60
2024/04/24 02:40:57;;;;;;;;;;;;;;;4.63;99.35;98783.00;5326935;26;19933;-58
2024/04/24 02:43:27;;;;;;;;;;;;;;;4.57;100.00;98797.09;5326884;26;19963;-60
2024/04/24 02:45:57;;;;;;;;;;;;;;;4.51;100.00;98783.66;5301234;26;19930;-60
2024/04/24 02:48:29;;;;;;;;;;;;;;;4.59;100.00;98787.09;5327885;26;19940;-60
2024/04/24 02:50:59;;;;;;;;;;;;;;;4.50;100.00;98782.06;5328804;26;19974;-61
2024/04/24 02:53:29;;;;;;;;;;;;;;;4.43;100.00;98783.94;5329300;26;20588;-58
2024/04/24 02:55:59;;;;;;;;;;;;;;;4.46;100.00;98783.50;5331125;26;20705;-61
2024/04/24 02:58:29;;;;;;;;;;;;;;;4.42;100.00;98769.03;5327752;26;19955;-58
2024/04/24 03:00:58;;;;;;;;;;;;;;;4.41;100.00;98767.41;5328678;26;20518;-58
2024/04/24 03:03:28;;;;;;;;;;;;;;;4.48;100.00;98770.03;5323229;26;19957;-58
2024/04/24 03:05:58;;;;;;;;;;;;;;;4.46;100.00;98767.56;5327184;26;20362;-58
2024/04/24 03:08:28;;;;;;;;;;;;;;;4.35;100.00;98768.25;5327889;26;19933;-58
2024/04/24 03:10:55;;;;;;;;;;;;;;;4.43;100.00;98768.00;5330056;26;19937;-58
2024/04/24 03:13:25;;;;;;;;;;;;;;;4.35;100.00;98760.31;5325809;26;19974;-59
2024/04/24 03:15:55;;;;;;;;;;;;;;;4.41;100.00;98758.63;5318936;26;19926;-59
2024/04/24 03:18:24;;;;;;;;;;;;;;;4.38;100.00;98757.22;5327864;26;20731;-59
2024/04/24 03:20:57;;;;;;;;;;;;;;;4.33;100.00;98752.53;5315709;26;19992;-58
2024/04/24 03:23:27;;;;;;;;;;;;;;;4.43;100.00;98748.63;5348577;26;19926;-58
2024/04/24 03:25:56;;;;;;;;;;;;;;;4.37;100.00;98744.16;5321988;26;20393;-58
2024/04/24 03:28:26;;;;;;;;;;;;;;;4.45;100.00;98738.59;5319637;26;19957;-58
2024/04/24 03:30:56;;;;;;;;;;;;;;;4.45;100.00;98734.09;5331386;26;19926;-58
2024/04/24 03:33:26;;;;;;;;;;;;;;;4.39;100.00;98731.50;5325653;26;19926;-58
2024/04/24 03:35:59;;;;;;;;;;;;;;;4.31;100.00;98729.91;5324455;26;20315;-58
2024/04/24 03:38:29;;;;;;;;;;;;;;;4.30;100.00;98723.00;5324892;26;19932;-58
2024/04/24 03:40:58;;;;;;;;;;;;;;;4.25;100.00;98726.28;5321907;26;20374;-58
2024/04/24 03:43:28;;;;;;;;;;;;;;;4.24;100.00;98722.00;5325720;26;19934;-58
2024/04/24 03:45:58;;;;;;;;;;;;;;;4.14;100.00;98715.53;5323924;26;20566;-58
2024/04/24 03:48:28;;;;;;;;;;;;;;;4.27;100.00;98712.81;5319706;26;19926;-58
2024/04/24 03:51:00;;;;;;;;;;;;;;;4.32;100.00;98705.81;5322888;26;19926;-58
2024/04/24 03:53:30;;;;;;;;;;;;;;;4.05;100.00;98722.94;5324506;26;19932;-59
2024/04/24 03:56:00;;;;;;;;;;;;;;;4.25;100.00;98718.31;5324963;26;19938;-58
2024/04/24 03:58:30;;;;;;;;;;;;;;;4.42;100.00;98713.31;5324662;26;19926;-58
2024/04/24 04:01:00;;;;;;;;;;;;;;;4.41;100.00;98711.69;5322240;26;20870;-58
2024/04/24 04:03:30;;;;;;;;;;;;;;;4.16;100.00;98708.19;5329078;26;20364;-58
2024/04/24 04:06:02;;;;;;;;;;;;;;;3.88;100.00;98702.19;5324210;26;19926;-58
2024/04/24 04:08:32;;;;;;;;;;;;;;;3.93;100.00;98717.47;5311984;26;20000;-58
2024/04/24 04:11:02;;;;;;;;;;;;;;;3.94;100.00;98718.28;5322919;26;19933;-59
2024/04/24 04:13:32;;;;;;;;;;;;;;;3.99;100.00;98713.97;5344967;26;19933;-59
2024/04/24 04:16:02;;;;;;;;;;;;;;;4.06;100.00;98720.06;5322519;26;19933;-58
2024/04/24 04:18:32;;;;;;;;;;;;;;;3.97;100.00;98718.69;5325003;26;19946;-58
2024/04/24 04:21:04;;;;;;;;;;;;;;;3.90;100.00;98709.97;5319567;26;19926;-59
2024/04/24 04:23:34;;;;;;;;;;;;;;;3.84;100.00;98708.13;5318184;26;19938;-58
2024/04/24 04:26:04;;;;;;;;;;;;;;;3.94;100.00;98713.78;5320897;26;19926;-58
2024/04/24 04:28:34;;;;;;;;;;;;;;;3.94;100.00;98711.13;5322360;26;19933;-58
2024/04/24 04:31:05;;;;;;;;;;;;;;;4.02;100.00;98713.56;5327079;26;19950;-58
2024/04/24 04:33:34;;;;;;;;;;;;;;;3.97;100.00;98709.91;5327335;26;19933;-59
2024/04/24 04:36:07;;;;;;;;;;;;;;;3.99;100.00;98706.00;5312277;26;19934;-59
2024/04/24 04:38:39;;;;;;;;;;;;;;;3.90;100.00;98702.00;5325525;26;19926;-59
2024/04/24 04:41:09;;;;;;;;;;;;;;;3.83;100.00;98699.38;5320468;26;19988;-59
2024/04/24 04:43:40;;;;;;;;;;;;;;;4.10;100.00;98700.03;5324250;26;19991;-59
2024/04/24 04:46:09;;;;;;;;;;;;;;;4.13;100.00;98700.66;5320722;26;19926;-59
2024/04/24 04:48:39;;;;;;;;;;;;;;;4.14;100.00;98689.81;5329142;26;19926;-59
2024/04/24 04:51:11;;;;;;;;;;;;;;;4.19;100.00;98697.13;5323877;26;19934;-59
2024/04/24 04:53:41;;;;;;;;;;;;;;;4.23;100.00;98698.34;5319478;26;19940;-59
2024/04/24 04:56:11;;;;;;;;;;;;;;;4.29;100.00;98697.47;5322476;26;20727;-59
2024/04/24 04:58:41;;;;;;;;;;;;;;;4.25;100.00;98693.63;5308584;26;19952;-58
2024/04/24 05:01:12;;;;;;;;;;;;;;;4.17;100.00;98693.88;5325499;26;19925;-59
2024/04/24 05:03:39;;;;;;;;;;;;;;;4.17;100.00;98696.53;5323525;26;20288;-59
2024/04/24 05:06:12;;;;;;;;;;;;;;;4.30;100.00;98696.47;5323322;26;19933;-59
2024/04/24 05:08:42;;;;;;;;;;;;;;;4.18;100.00;98704.28;5324188;26;19933;-59
2024/04/24 05:11:11;;;;;;;;;;;;;;;4.09;100.00;98697.59;5322812;26;19927;-59
2024/04/24 05:13:41;;;;;;;;;;;;;;;3.94;100.00;98700.53;5323842;26;20713;-59
2024/04/24 05:16:11;;;;;;;;;;;;;;;3.84;100.00;98700.19;5317117;26;19926;-59
2024/04/24 05:18:41;;;;;;;;;;;;;;;3.75;100.00;98696.97;5305701;26;20727;-59
2024/04/24 05:21:14;;;;;;;;;;;;;;;3.65;100.00;98693.97;5316280;26;20672;-58
2024/04/24 05:23:44;;;;;;;;;;;;;;;3.68;100.00;98681.09;5320951;26;20404;-59
2024/04/24 05:29:10;;;;;;;;;;;;;;;3.63;100.00;98683.56;5247950;26;19926;-59
2024/04/24 05:31:40;;;;;;;;;;;;;;;3.71;100.00;98676.41;5311332;26;19926;-59
2024/04/24 05:34:09;;;;;;;;;;;;;;;3.69;100.00;98673.94;5354912;26;19926;-59
2024/04/24 05:36:42;;;;;;;;;;;;;;;3.55;100.00;98685.66;5318774;26;19940;-59
2024/04/24 05:39:12;;;;;;;;;;;;;;;3.56;100.00;98685.44;5325451;26;19926;-59
2024/04/24 05:41:42;;;;;;;;;;;;;;;3.42;100.00;98679.38;5321814;26;19933;-59
2024/04/24 05:44:12;;;;;;;;;;;;;;;3.56;100.00;98677.47;5352382;26;19977;-61
2024/04/24 05:46:42;;;;;;;;;;;;;;;3.62;100.00;98681.94;5322515;26;19932;-59
2024/04/24 05:49:11;;;;;;;;;;;;;;;3.56;100.00;98682.78;5327452;26;19973;-59
2024/04/24 05:51:44;;;;;;;;;;;;;;;3.56;100.00;98679.31;5325423;26;20639;-59
2024/04/24 05:54:14;;;;;;;;;;;;;;;3.56;100.00;98682.78;5312974;26;20283;-58
2024/04/24 05:56:44;;;;;;;;;;;;;;;3.60;100.00;98677.88;5320627;26;19941;-59
2024/04/24 05:59:13;;;;;;;;;;;;;;;3.64;100.00;98669.31;5326544;26;19926;-58
2024/04/24 06:01:43;;;;;;;;;;;;;;;3.60;100.00;98673.38;5326663;26;19926;-59
2024/04/24 06:04:13;;;;;;;;;;;;;;;3.70;100.00;98672.94;5319542;26;20326;-59
2024/04/24 06:06:46;;;;;;;;;;;;;;;3.81;100.00;98669.59;5319119;26;20002;-59
2024/04/24 06:09:16;;;;;;;;;;;;;;;3.84;100.00;98673.66;5326929;26;19933;-59
2024/04/24 06:11:45;;;;;;;;;;;;;;;3.89;100.00;98672.03;5321209;26;19926;-59
2024/04/24 06:14:15;;;;;;;;;;;;;;;3.86;100.00;98667.13;5325495;26;19925;-59
2024/04/24 06:16:45;;;;;;;;;;;;;;;4.20;100.00;98673.06;5318701;26;20335;-59
2024/04/24 06:19:15;;;;;;;;;;;;;;;4.34;100.00;98668.44;5360036;26;19980;-60
2024/04/24 06:21:48;;;;;;;;;;;;;;;4.38;100.00;98669.66;5319236;26;20729;-59
2024/04/24 06:24:18;;;;;;;;;;;;;;;4.49;100.00;98666.31;5321188;26;19970;-60
2024/04/24 06:26:48;;;;;;;;;;;;;;;4.68;100.00;98666.34;5326759;26;19941;-59
2024/04/24 06:29:15;;;;;;;;;;;;;;;4.71;100.00;98660.59;5328916;26;19995;-60
2024/04/24 06:31:45;;;;;;;;;;;;;;;5.07;100.00;98662.50;5329621;26;20363;-59
2024/04/24 06:34:16;;;;;;;;;;;;;;;5.18;100.00;98664.41;5330204;26;19925;-60
2024/04/24 06:36:48;;;;;;;;;;;;;;;5.03;100.00;98665.81;5327932;26;19933;-60
2024/04/24 06:39:18;;;;;;;;;;;;;;;4.86;100.00;98663.72;5327833;26;19933;-59
2024/04/24 06:41:48;;;;;;;;;;;;;;;4.78;100.00;98664.00;5325020;26;19957;-60
2024/04/24 06:44:18;;;;;;;;;;;;;;;5.05;100.00;98664.56;5322342;26;19933;-59
2024/04/24 06:46:48;;;;;;;;;;;;;;;4.93;100.00;98669.78;5326320;26;20008;-62
2024/04/24 06:49:18;;;;;;;;;;;;;;;4.94;100.00;98676.75;5326198;26;19936;-59
2024/04/24 06:51:51;;;;;;;;;;;;;;;4.84;100.00;98668.47;5321723;26;19932;-60
2024/04/24 06:54:20;;;;;;;;;;;;;;;4.76;100.00;98669.53;5330090;26;19938;-60
2024/04/24 06:56:50;;;;;;;;;;;;;;;4.83;100.00;98661.50;5324857;26;19933;-60
2024/04/24 06:59:20;;;;;;;;;;;;;;;4.87;100.00;98662.72;5329948;26;19926;-60
2024/04/24 07:01:50;;;;;;;;;;;;;;;5.11;100.00;98665.53;5324008;26;19932;-59
2024/04/24 07:04:20;;;;;;;;;;;;;;;5.23;100.00;98666.41;5317450;26;19926;-60
2024/04/24 07:06:52;;;;;;;;;;;;;;;5.13;100.00;98655.50;5354402;26;20780;-60
2024/04/24 07:09:22;;;;;;;;;;;;;;;5.27;100.00;98656.97;5326203;26;19998;-60
2024/04/24 07:11:52;;;;;;;;;;;;;;;5.21;100.00;98657.84;5327698;26;22784;-59
2024/04/24 07:14:23;;;;;;;;;;;;;;;5.63;100.00;98661.44;5329266;26;19989;-60
2024/04/24 07:16:53;;;;;;;;;;;;;;;5.63;100.00;98660.63;5325393;26;19934;-60
2024/04/24 07:19:23;;;;;;;;;;;;;;;5.58;100.00;98663.16;5322155;26;19934;-60
2024/04/24 07:21:55;;;;;;;;;;;;;;;5.78;100.00;98660.22;5324392;26;19941;-60
2024/04/24 07:24:25;;;;;;;;;;;;;;;5.71;100.00;98656.84;5325530;26;20382;-60
2024/04/24 07:26:55;;;;;;;;;;;;;;;6.16;100.00;98654.59;5318184;26;19926;-60
2024/04/24 07:29:25;;;;;;;;;;;;;;;6.64;94.08;98651.00;5321325;26;19933;-60
2024/04/24 07:31:55;;;;;;;;;;;;;;;6.86;92.36;98645.06;5313391;26;20928;-58
2024/04/24 07:34:24;;;;;;;;;;;;;;;6.83;90.53;98649.00;5318281;26;19927;-58
2024/04/24 07:36:57;;;;;;;;;;;;;;;6.72;91.48;98646.38;5320628;26;19926;-59
2024/04/24 07:39:27;;;;;;;;;;;;;;;6.65;92.43;98630.50;5326982;26;19938;-60
2024/04/24 07:41:57;;;;;;;;;;;;;;;6.90;86.73;98643.56;5325450;26;19934;-60
2024/04/24 07:44:27;;;;;;;;;;;;;;;6.85;88.67;98641.59;5331118;26;19961;-60
2024/04/24 07:46:57;;;;;;;;;;;;;;;7.05;86.06;98643.09;5319772;26;20381;-58
2024/04/24 07:49:28;;;;;;;;;;;;;;;6.28;88.15;98651.16;5326125;26;20234;-59
2024/04/24 07:52:01;;;;;;;;;;;;;;;6.24;88.41;98643.66;5323995;26;19941;-59
2024/04/24 07:54:30;;;;;;;;;;;;;;;6.36;88.92;98641.00;5328357;26;19926;-59
2024/04/24 07:57:04;;;;;;;;;;;;;;;6.31;87.18;98642.72;5330287;26;20587;-58
2024/04/24 07:59:33;;;;;;;;;;;;;;;6.57;82.79;98634.31;5316850;26;19926;-59
2024/04/24 08:02:03;;;;;;;;;;;;;;;8.78;71.81;98628.63;5315533;26;19987;-59
2024/04/24 08:04:33;;;;;;;;;;;;;;;8.38;70.28;98637.59;5315366;26;19927;-59
2024/04/24 08:07:06;;;;;;;;;;;;;;;8.63;69.01;98632.69;5300851;26;19925;-59
2024/04/24 08:09:36;;;;;;;;;;;;;;;8.79;67.71;98623.03;5328080;26;20261;-59
2024/04/24 08:12:07;;;;;;;;;;;;;;;8.83;67.33;98628.69;5324300;26;19926;-60
2024/04/24 08:14:37;;;;;;;;;;;;;;;8.41;69.63;98627.28;5317561;26;19929;-60
2024/04/24 08:17:07;;;;;;;;;;;;;;;8.22;69.49;98620.53;5322041;26;19926;-59
2024/04/24 08:19:36;;;;;;;;;;;;;;;8.53;65.55;98615.69;5323855;26;19925;-59
2024/04/24 08:22:09;;;;;;;;;;;;;;;8.50;64.24;98621.53;5319039;26;19934;-59
2024/04/24 08:24:39;;;;;;;;;;;;;;;8.82;64.37;98619.06;5329378;26;19930;-59
2024/04/24 08:27:09;;;;;;;;;;;;;;;8.07;67.79;98620.28;5327760;26;19953;-59
2024/04/24 08:29:39;;;;;;;;;;;;;;;7.76;68.67;98615.22;5321613;26;19926;-59
2024/04/24 08:32:09;;;;;;;;;;;;;;;8.13;69.01;98612.09;5326479;26;20253;-59
2024/04/24 08:34:39;;;;;;;;;;;;;;;8.46;66.27;98612.38;5347096;26;19927;-60
2024/04/24 08:37:11;;;;;;;;;;;;;;;10.35;59.58;98606.59;5285959;26;19934;-59
2024/04/24 08:39:41;;;;;;;;;;;;;;;11.07;54.57;98613.22;5274410;26;20310;-59
2024/04/24 08:42:11;;;;;;;;;;;;;;;11.15;54.96;98609.25;5293959;26;20349;-59
2024/04/24 08:44:42;;;;;;;;;;;;;;;12.15;51.92;98611.69;5286682;26;19927;-59
2024/04/24 08:47:12;;;;;;;;;;;;;;;11.89;51.81;98612.75;5291273;26;20758;-59
2024/04/24 08:49:42;;;;;;;;;;;;;;;10.71;52.04;98610.34;5291182;26;20444;-59
2024/04/24 08:52:14;;;;;;;;;;;;;;;10.29;53.71;98613.00;5317054;26;19931;-59
2024/04/24 08:54:44;;;;;;;;;;;;;;;9.61;58.15;98608.03;5287185;26;19927;-59
2024/04/24 08:57:14;;;;;;;;;;;;;;;9.27;58.70;98613.50;5290794;26;19934;-59
2024/04/24 08:59:44;;;;;;;;;;;;;;;8.90;61.21;98612.50;5284052;26;19942;-59
2024/04/24 09:02:14;;;;;;;;;;;;;;;8.38;64.09;98611.69;5286899;26;19927;-59
2024/04/24 09:04:45;;;;;;;;;;;;;;;8.54;64.43;98603.97;5288107;26;20608;-59
2024/04/24 09:07:20;;;;;;;;;;;;;;;8.54;64.99;98609.31;5286286;26;20259;-59
2024/04/24 09:09:49;;;;;;;;;;;;;;;8.82;66.17;98606.50;5290206;26;20215;-59
2024/04/24 09:12:19;;;;;;;;;;;;;;;8.21;68.12;98608.22;5280617;26;19926;-59
2024/04/24 09:14:50;;;;;;;;;;;;;;;7.78;80.01;98606.94;5277673;26;19998;-59
2024/04/24 09:17:20;;;;;;;;;;;;;;;7.68;83.50;98606.75;5292767;26;19930;-60
2024/04/24 09:19:50;;;;;;;;;;;;;;;6.96;83.87;98610.66;5292195;26;19927;-60
2024/04/24 09:22:24;;;;;;;;;;;;;;;7.54;83.62;98608.91;5291764;26;19926;-59
2024/04/24 09:24:55;;;;;;;;;;;;;;;8.38;79.68;98606.34;5285214;26;19926;-59
2024/04/24 09:27:25;;;;;;;;;;;;;;;10.50;72.34;98604.03;5283983;26;20302;-60
2024/04/24 09:29:55;;;;;;;;;;;;;;;10.26;72.95;98598.19;5285132;26;20818;-59
2024/04/24 09:32:25;;;;;;;;;;;;;;;9.66;72.11;98600.06;5284681;26;19926;-59
2024/04/24 09:34:55;;;;;;;;;;;;;;;9.04;71.90;98600.41;5291730;26;19983;-59
2024/04/24 09:37:28;;;;;;;;;;;;;;;9.32;72.15;98602.06;5325487;26;19926;-59
2024/04/24 09:39:58;;;;;;;;;;;;;;;9.49;71.45;98602.00;5321048;26;19941;-59
2024/04/24 09:42:27;;;;;;;;;;;;;;;8.32;74.21;98602.00;5317322;26;19926;-59
2024/04/24 09:44:57;;;;;;;;;;;;;;;7.07;77.98;98598.38;5325603;26;19961;-59
2024/04/24 09:47:27;;;;;;;;;;;;;;;8.45;70.39;98600.09;5325077;26;19926;-59
2024/04/24 09:49:57;;;;;;;;;;;;;;;10.46;63.44;98602.94;5316878;26;19926;-59
2024/04/24 09:52:29;;;;;;;;;;;;;;;10.55;56.13;98589.88;5324573;26;19925;-59
2024/04/24 09:54:59;;;;;;;;;;;;;;;11.57;53.85;98584.97;5325989;26;19932;-59
2024/04/24 09:57:32;;;;;;;;;;;;;;;12.27;52.77;98577.31;5320394;26;19975;-59
2024/04/24 10:00:04;;;;;;;;;;;;;;;11.59;52.06;98571.31;5324908;26;19926;-59
2024/04/24 10:02:41;;;;;;;;;;;;;;;10.91;55.08;98566.78;5325373;26;20015;-59
2024/04/24 10:05:13;;;;;;;;;;;;;;;13.01;50.46;98558.91;5324125;26;19933;-59
2024/04/24 10:07:50;;;;;;;;;;;;;;;10.75;53.45;98562.38;5318243;26;20361;-59
2024/04/24 10:10:20;;;;;;;;;;;;;;;10.27;55.36;98561.50;5327242;26;21119;-59
2024/04/24 10:12:50;;;;;;;;;;;;;;;9.77;62.18;98562.69;5329578;26;19933;-58
2024/04/24 10:15:20;;;;;;;;;;;;;;;8.59;73.67;98569.31;5325830;26;19982;-59
2024/04/24 10:17:52;;;;;;;;;;;;;;;8.28;83.46;98563.47;5320959;26;20619;-59
2024/04/24 10:20:22;;;;;;;;;;;;;;;8.05;84.70;98569.78;5322338;26;20352;-58
2024/04/24 10:22:56;;;;;;;;;;;;;;;8.19;84.91;98567.63;5312443;26;20384;-58
2024/04/24 10:25:26;;;;;;;;;;;;;;;7.98;83.85;98564.59;5324557;26;19926;-58
2024/04/24 10:27:56;;;;;;;;;;;;;;;8.50;80.17;98570.78;5322941;26;20591;-59
2024/04/24 10:30:26;;;;;;;;;;;;;;;8.23;81.35;98587.44;5325396;26;19929;-58
2024/04/24 10:32:56;;;;;;;;;;;;;;;7.88;88.50;98583.09;5321241;26;19950;-58
2024/04/24 10:35:27;;;;;;;;;;;;;;;8.13;89.77;98577.38;5320157;26;19932;-59
2024/04/24 10:38:00;;;;;;;;;;;;;;;9.22;83.74;98567.19;5319937;26;19946;-58
2024/04/24 10:40:29;;;;;;;;;;;;;;;9.96;77.05;98568.47;5325816;26;19926;-59
2024/04/24 10:42:59;;;;;;;;;;;;;;;9.76;73.03;98569.91;5317269;26;19925;-59
2024/04/24 10:45:29;;;;;;;;;;;;;;;8.99;83.12;98584.28;5326747;26;19926;-59
2024/04/24 10:47:59;;;;;;;;;;;;;;;7.33;90.07;98581.03;5323089;26;19927;-58
2024/04/24 10:50:29;;;;;;;;;;;;;;;6.63;98.54;98579.31;5322921;26;20020;-59
2024/04/24 10:53:03;;;;;;;;;;;;;;;6.14;100.00;98587.53;5318193;26;20421;-59
2024/04/24 10:55:33;;;;;;;;;;;;;;;6.00;100.00;98580.78;5322458;26;19933;-59
2024/04/24 10:58:03;;;;;;;;;;;;;;;6.13;100.00;98575.25;5329545;26;19930;-59
2024/04/24 11:00:33;;;;;;;;;;;;;;;6.39;100.00;98574.00;5325241;26;19940;-58
2024/04/24 11:03:05;;;;;;;;;;;;;;;7.02;100.00;98566.31;5319085;26;19926;-58
2024/04/24 11:05:36;;;;;;;;;;;;;;;7.54;96.76;98552.91;5326786;26;19997;-59
2024/04/24 11:08:09;;;;;;;;;;;;;;;7.20;95.37;98552.00;5321337;26;19926;-59
2024/04/24 11:10:38;;;;;;;;;;;;;;;8.03;95.15;98550.53;5332148;26;19933;-59
2024/04/24 11:13:14;;;;;;;;;;;;;;;8.55;93.02;98538.81;5316835;26;20316;-59
2024/04/24 11:15:44;;;;;;;;;;;;;;;8.30;92.09;98539.22;5315710;26;19934;-60
2024/04/24 11:18:16;;;;;;;;;;;;;;;9.00;92.02;98535.91;5328376;26;19938;-59
2024/04/24 11:20:46;;;;;;;;;;;;;;;9.94;82.91;98539.31;5326451;26;19929;-60
2024/04/24 11:23:20;;;;;;;;;;;;;;;10.28;81.48;98531.00;5311711;26;19926;-59
2024/04/24 11:25:49;;;;;;;;;;;;;;;10.29;74.98;98529.97;5325239;26;19929;-60
2024/04/24 11:28:21;;;;;;;;;;;;;;;10.37;74.05;98518.75;5317565;26;19926;-60
2024/04/24 11:30:51;;;;;;;;;;;;;;;11.14;68.31;98513.78;5320281;26;19926;-60
2024/04/24 11:33:21;;;;;;;;;;;;;;;11.30;64.64;98512.72;5328247;26;20659;-60
2024/04/24 11:35:51;;;;;;;;;;;;;;;11.39;63.97;98504.97;5324804;26;20591;-59
2024/04/24 11:38:24;;;;;;;;;;;;;;;12.10;61.52;98498.88;5328552;26;20368;-60
2024/04/24 11:40:53;;;;;;;;;;;;;;;13.05;58.85;98490.00;5321203;26;19926;-60
2024/04/24 11:43:23;;;;;;;;;;;;;;;12.76;55.19;98486.38;5327106;26;20559;-60
2024/04/24 11:45:51;;;;;;;;;;;;;;;11.91;58.91;98492.47;5292810;26;19926;-60
2024/04/24 11:48:23;;;;;;;;;;;;;;;11.75;60.17;98489.72;5330361;26;19925;-60
2024/04/24 11:50:57;;;;;;;;;;;;;;;11.38;60.01;98489.94;5325531;26;20434;-59
2024/04/24 11:53:30;;;;;;;;;;;;;;;11.03;56.35;98486.09;5320194;26;20390;-60
2024/04/24 11:56:00;;;;;;;;;;;;;;;11.07;54.87;98484.50;5320317;26;20054;-60
2024/04/24 11:58:30;;;;;;;;;;;;;;;10.31;57.68;98506.41;5329720;26;19932;-60
2024/04/24 12:01:00;;;;;;;;;;;;;;;8.69;62.56;98504.53;5312525;26;20408;-59
2024/04/24 12:03:30;;;;;;;;;;;;;;;8.11;68.65;98514.63;5324230;26;19954;-59
2024/04/24 12:06:00;;;;;;;;;;;;;;;7.87;71.05;98512.13;5326128;26;20500;-59
2024/04/24 12:08:33;;;;;;;;;;;;;;;7.73;73.03;98503.63;5327894;26;19933;-59
2024/04/24 12:11:04;;;;;;;;;;;;;;;7.92;75.10;98511.41;5324124;26;19933;-60
2024/04/24 12:13:34;;;;;;;;;;;;;;;8.12;81.05;98500.25;5323478;26;19934;-60
2024/04/24 12:16:05;;;;;;;;;;;;;;;8.67;78.55;98491.41;5324260;26;20006;-60
2024/04/24 12:18:35;;;;;;;;;;;;;;;8.95;76.75;98497.63;5329277;26;19925;-60
2024/04/24 12:21:04;;;;;;;;;;;;;;;8.74;73.16;98486.72;5312755;26;19942;-60
2024/04/24 12:23:37;;;;;;;;;;;;;;;9.29;70.00;98485.72;5325794;26;20244;-60
2024/04/24 12:26:07;;;;;;;;;;;;;;;9.89;67.37;98483.03;5323967;26;19957;-60
2024/04/24 12:28:37;;;;;;;;;;;;;;;10.31;64.04;98476.94;5318355;26;19933;-60
2024/04/24 12:31:07;;;;;;;;;;;;;;;10.55;62.82;98471.97;5319104;26;19926;-59
2024/04/24 12:33:40;;;;;;;;;;;;;;;10.23;60.33;98464.00;5328954;26;20469;-60
2024/04/24 12:36:11;;;;;;;;;;;;;;;10.03;59.97;98464.66;5300420;26;19999;-60
2024/04/24 12:38:43;;;;;;;;;;;;;;;10.41;55.76;98470.81;5286057;26;20642;-59
2024/04/24 12:41:13;;;;;;;;;;;;;;;10.13;52.37;98465.56;5289985;26;19926;-59
2024/04/24 12:43:43;;;;;;;;;;;;;;;9.85;53.69;98455.97;5287198;26;20332;-59
2024/04/24 12:46:13;;;;;;;;;;;;;;;10.56;53.22;98460.19;5287876;26;19957;-60
2024/04/24 12:48:42;;;;;;;;;;;;;;;10.91;52.33;98459.53;5288472;26;19996;-59
2024/04/24 12:51:12;;;;;;;;;;;;;;;11.04;53.38;98458.22;5292712;26;19927;-59
2024/04/24 12:53:45;;;;;;;;;;;;;;;10.61;51.96;98454.88;5283947;26;20374;-59
2024/04/24 12:56:15;;;;;;;;;;;;;;;10.87;53.23;98452.28;5290662;26;19927;-59
2024/04/24 12:58:45;;;;;;;;;;;;;;;10.21;54.36;98439.34;5293111;26;19933;-59
2024/04/24 13:01:19;;;;;;;;;;;;;;;10.27;53.79;98451.69;5280489;26;19927;-59
2024/04/24 13:03:48;;;;;;;;;;;;;;;10.83;54.98;98449.28;5293593;26;19927;-59
2024/04/24 13:06:19;;;;;;;;;;;;;;;11.21;56.41;98437.34;5289122;26;19945;-59
2024/04/24 13:08:55;;;;;;;;;;;;;;;10.87;54.89;98434.31;5287385;26;19933;-60